Dewey Beach, Delaware
Current Conditions -  °F | °C
As of 9:02 AM on Thursday 23 Oct 2014 (Local Time) from KGED Reporting Station
Overcast Overcast  
Wind Chill: 54°   Ceiling: 3000
Heat Index: 54°   Visibility: 10mi
Dew Point: 45°   Wind: 7mph
Humidity: 72%   Direction: NA
Pressure: 29.8"   Gusts: NA
Location:  38.7115°N, 75.1086°W
Report Text: KGED 231302Z AUTO VRB06KT 10SM OVC030 12/07 A2980 RMK AO2 T01220072
Loading
Personal Weather Stations






























Interactive Weather Map
Tropical Storm Tracking
New forecast layout! Learn more

10-Day Weather Forecast

Advertisements
Track Severe Weather on mobile